Time;durP1;ratioP1;P1;durP2;ratioP2;P2;SDS_P1;SDS_P2;PMS_P1;PMS_P2;Temp;Humidity;BMP_temperature;BMP_pressure;BME280_temperature;BME280_humidity;BME280_pressure;Samples;Min_cycle;Max_cycle;Signal;HPM_P1;HPM_P2
2023/04/14 00:01:17;;;;;;;4.47;1.25;;;5.10;99.90;;;;;;5106449;28;20058;-57
2023/04/14 00:03:45;;;;;;;8.40;1.80;;;4.90;99.90;;;;;;5098885;28;20043;-57
2023/04/14 00:06:12;;;;;;;4.32;1.20;;;4.90;99.90;;;;;;5108521;28;20055;-57
2023/04/14 00:08:40;;;;;;;9.00;1.85;;;4.90;99.90;;;;;;5108355;28;20044;-57
2023/04/14 00:11:08;;;;;;;4.03;1.10;;;4.80;99.90;;;;;;5090416;28;20932;-57
2023/04/14 00:13:36;;;;;;;6.53;1.23;;;4.80;99.90;;;;;;5107337;28;20133;-57
2023/04/14 00:16:05;;;;;;;7.05;1.50;;;4.80;99.90;;;;;;5108235;28;20052;-57
2023/04/14 00:18:33;;;;;;;11.02;1.63;;;4.70;99.90;;;;;;5088984;28;20038;-56
2023/04/14 00:21:01;;;;;;;8.65;1.65;;;4.80;99.90;;;;;;5090255;28;20045;-56
2023/04/14 00:23:29;;;;;;;10.40;1.60;;;4.70;99.90;;;;;;5101699;28;20051;-58
2023/04/14 00:26:00;;;;;;;14.07;1.90;;;4.70;99.90;;;;;;5088088;28;20055;-57
2023/04/14 00:28:28;;;;;;;7.03;1.63;;;4.60;99.90;;;;;;5086190;28;20494;-57
2023/04/14 00:30:55;;;;;;;7.43;1.45;;;4.60;99.90;;;;;;5108166;28;20377;-57
2023/04/14 00:33:24;;;;;;;11.48;2.13;;;4.60;99.90;;;;;;5090121;28;20039;-57
2023/04/14 00:35:53;;;;;;;11.50;1.88;;;4.50;99.90;;;;;;5106850;28;20048;-57
2023/04/14 00:38:21;;;;;;;6.07;2.10;;;4.50;99.90;;;;;;5107874;28;20047;-57
2023/04/14 00:40:48;;;;;;;5.68;1.40;;;4.50;99.90;;;;;;5090186;28;20410;-58
2023/04/14 00:43:19;;;;;;;9.45;1.90;;;4.40;99.90;;;;;;5085503;28;20534;-56
2023/04/14 00:45:49;;;;;;;5.30;1.58;;;4.40;99.90;;;;;;5087865;28;20048;-56
2023/04/14 00:48:17;;;;;;;;;;;4.40;99.90;;;;;;5090331;28;20047;-58
2023/04/14 00:50:46;;;;;;;5.93;2.13;;;4.40;99.90;;;;;;5089998;28;19919;-57
2023/04/14 00:53:14;;;;;;;5.15;1.50;;;4.40;99.90;;;;;;5106919;28;20052;-57
2023/04/14 00:55:42;;;;;;;6.90;1.35;;;4.40;99.90;;;;;;5091342;28;20050;-58
2023/04/14 00:58:10;;;;;;;4.85;2.03;;;4.40;99.90;;;;;;5110214;28;20043;-58
2023/04/14 01:00:38;;;;;;;5.20;1.60;;;4.30;99.90;;;;;;5093534;28;20491;-59
2023/04/14 01:03:06;;;;;;;4.40;1.33;;;4.20;99.90;;;;;;5107590;28;20399;-58
2023/04/14 01:05:34;;;;;;;7.93;1.88;;;4.20;99.90;;;;;;5069758;28;20399;-58
2023/04/14 01:08:03;;;;;;;5.32;1.88;;;4.20;99.90;;;;;;5078131;28;20043;-57
2023/04/14 01:10:39;;;;;;;10.73;2.10;;;4.20;99.90;;;;;;5111466;28;20056;-57
2023/04/14 01:13:23;;;;;;;6.32;2.35;;;4.20;99.90;;;;;;5110587;28;20036;-56
2023/04/14 01:16:00;;;;;;;7.05;2.10;;;4.00;99.90;;;;;;5111371;28;20044;-57
2023/04/14 01:18:49;;;;;;;9.63;1.88;;;4.20;99.90;;;;;;5092750;28;20050;-56
2023/04/14 01:21:24;;;;;;;12.15;2.08;;;4.10;99.90;;;;;;5092989;28;20050;-57
2023/04/14 01:24:13;;;;;;;10.32;2.60;;;4.00;99.90;;;;;;5093125;28;20050;-56
2023/04/14 01:26:42;;;;;;;8.15;1.92;;;3.90;99.90;;;;;;5088244;28;20758;-57
2023/04/14 01:30:05;;;;;;;6.13;1.75;;;3.90;99.90;;;;;;5086249;28;20062;-57
2023/04/14 01:32:41;;;;;;;7.72;2.03;;;3.90;99.90;;;;;;5025925;28;20044;-58
2023/04/14 01:35:25;;;;;;;10.27;2.20;;;3.80;99.90;;;;;;5075683;28;20062;-59
2023/04/14 01:38:00;;;;;;;10.68;2.00;;;3.80;99.90;;;;;;5096545;28;20051;-58
2023/04/14 01:40:30;;;;;;;5.72;1.98;;;3.70;99.90;;;;;;5095295;28;20035;-58
2023/04/14 01:43:07;;;;;;;4.95;1.70;;;3.70;99.90;;;;;;5093091;28;20059;-56
2023/04/14 01:45:51;;;;;;;8.60;1.58;;;3.60;99.90;;;;;;5075269;28;20039;-56
2023/04/14 01:48:20;;;;;;;5.43;1.50;;;3.60;99.90;;;;;;5075620;28;20052;-57
2023/04/14 01:50:48;;;;;;;9.13;2.08;;;3.50;99.90;;;;;;5059364;28;20048;-56
2023/04/14 01:53:18;;;;;;;4.20;1.58;;;3.50;99.90;;;;;;5093631;28;20051;-56
2023/04/14 01:55:48;;;;;;;3.67;1.80;;;3.50;99.90;;;;;;5075753;28;20051;-58
2023/04/14 01:58:19;;;;;;;15.73;2.20;;;3.40;99.90;;;;;;5079669;28;20071;-57
2023/04/14 02:00:49;;;;;;;3.25;1.67;;;3.40;99.90;;;;;;5095584;28;20051;-57
2023/04/14 02:03:19;;;;;;;8.68;2.45;;;3.40;99.90;;;;;;5095600;28;20070;-57
2023/04/14 02:05:50;;;;;;;7.38;2.17;;;3.30;99.90;;;;;;5103739;28;20044;-57
2023/04/14 02:08:19;;;;;;;12.85;1.98;;;3.30;99.90;;;;;;5092934;28;20044;-57
2023/04/14 02:10:50;;;;;;;5.85;1.92;;;3.30;99.90;;;;;;5075531;28;20047;-59
2023/04/14 02:13:20;;;;;;;5.13;2.05;;;3.30;99.90;;;;;;5102014;28;20421;-57
2023/04/14 02:15:52;;;;;;;6.90;1.95;;;3.30;99.90;;;;;;5094650;28;20410;-58
2023/04/14 02:18:22;;;;;;;4.22;1.52;;;3.30;99.90;;;;;;5113605;28;20433;-58
2023/04/14 02:20:51;;;;;;;3.47;1.50;;;3.30;99.90;;;;;;5095424;28;20050;-59
2023/04/14 02:23:19;;;;;;;7.75;2.08;;;3.20;99.90;;;;;;5108475;28;20035;-59
2023/04/14 02:26:03;;;;;;;7.05;1.60;;;3.20;99.90;;;;;;5113566;28;20051;-61
2023/04/14 02:28:36;;;;;;;6.85;1.70;;;3.20;99.90;;;;;;5113470;28;20044;-59
2023/04/14 02:31:08;;;;;;;3.47;1.60;;;3.20;99.90;;;;;;5094321;28;20039;-58
2023/04/14 02:33:38;;;;;;;4.85;1.20;;;3.20;99.90;;;;;;5113467;28;20058;-59
2023/04/14 02:36:15;;;;;;;;;;;3.10;99.90;;;;;;5095477;28;20056;-57
2023/04/14 02:38:56;;;;;;;2.85;1.13;;;3.10;99.90;;;;;;5095099;28;19927;-56
2023/04/14 02:41:27;;;;;;;5.72;1.52;;;3.10;99.90;;;;;;5112019;28;20048;-57
2023/04/14 02:44:09;;;;;;;5.40;1.73;;;3.10;99.90;;;;;;5088193;28;20048;-58
2023/04/14 02:46:41;;;;;;;8.52;2.50;;;3.10;99.90;;;;;;5094102;28;20052;-58
2023/04/14 02:49:12;;;;;;;4.20;1.45;;;3.10;99.90;;;;;;5113052;28;20039;-57
2023/04/14 02:51:44;;;;;;;2.72;1.10;;;3.10;99.90;;;;;;5094874;28;20044;-57
2023/04/14 02:54:14;;;;;;;12.60;1.90;;;3.10;99.90;;;;;;5112824;28;20055;-57
2023/04/14 02:56:46;;;;;;;8.25;1.88;;;3.10;99.90;;;;;;5111727;28;20040;-56
2023/04/14 02:59:20;;;;;;;4.78;1.35;;;3.10;99.90;;;;;;5080691;28;20043;-56
2023/04/14 03:02:01;;;;;;;9.23;1.67;;;3.10;99.90;;;;;;5076831;28;20050;-56
2023/04/14 03:04:35;;;;;;;5.07;1.83;;;3.10;99.90;;;;;;5093693;28;20032;-56
2023/04/14 03:07:08;;;;;;;4.47;1.70;;;3.10;99.90;;;;;;5111540;28;20047;-56
2023/04/14 03:09:36;;;;;;;6.40;1.30;;;3.10;99.90;;;;;;5100511;28;20530;-56
2023/04/14 03:12:05;;;;;;;3.85;1.50;;;3.00;99.90;;;;;;5074228;28;20055;-56
2023/04/14 03:14:34;;;;;;;6.45;1.77;;;3.10;99.90;;;;;;5109897;28;20036;-55
2023/04/14 03:17:04;;;;;;;5.25;1.55;;;3.10;99.90;;;;;;5094357;28;20039;-56
2023/04/14 03:19:33;;;;;;;10.07;2.17;;;3.10;99.90;;;;;;5092244;28;20039;-57
2023/04/14 03:22:03;;;;;;;7.57;3.08;;;3.10;99.90;;;;;;5094159;28;20070;-57
2023/04/14 03:24:34;;;;;;;11.75;1.75;;;3.00;99.90;;;;;;5111623;28;20047;-57
2023/04/14 03:27:05;;;;;;;4.25;1.30;;;3.10;99.90;;;;;;5111172;28;20040;-57
2023/04/14 03:29:40;;;;;;;4.60;1.20;;;3.00;99.90;;;;;;5112202;28;20375;-57
2023/04/14 03:32:10;;;;;;;4.47;2.33;;;3.00;99.90;;;;;;5111139;28;20052;-55
2023/04/14 03:34:55;;;;;;;6.55;1.90;;;3.00;99.90;;;;;;5109637;28;20062;-57
2023/04/14 03:37:32;;;;;;;4.50;1.80;;;3.00;99.90;;;;;;5093049;28;20040;-57
2023/04/14 03:40:04;;;;;;;6.50;1.58;;;2.90;99.90;;;;;;5091923;28;20052;-57
2023/04/14 03:42:34;;;;;;;6.63;1.80;;;2.90;99.90;;;;;;5076079;28;20040;-57
2023/04/14 03:45:03;;;;;;;;;;;2.90;99.90;;;;;;5089780;28;20047;-57
2023/04/14 03:47:34;;;;;;;5.70;1.25;;;2.90;99.90;;;;;;5074970;28;19920;-56
2023/04/14 03:50:04;;;;;;;6.97;1.45;;;2.90;99.90;;;;;;5095113;28;20040;-56
2023/04/14 03:52:36;;;;;;;5.60;0.93;;;2.80;99.90;;;;;;5093911;28;20051;-56
2023/04/14 03:55:07;;;;;;;5.43;1.40;;;3.00;99.90;;;;;;5110960;28;20050;-56
2023/04/14 03:57:38;;;;;;;3.15;1.30;;;3.00;99.90;;;;;;5093709;28;20055;-57
2023/04/14 04:00:09;;;;;;;8.15;1.50;;;2.90;99.90;;;;;;5093645;28;20402;-57
2023/04/14 04:02:41;;;;;;;7.35;1.75;;;3.00;99.90;;;;;;5093671;28;20040;-56
2023/04/14 04:05:12;;;;;;;8.50;2.10;;;3.00;99.90;;;;;;5110725;28;20047;-56
2023/04/14 04:07:43;;;;;;;7.45;2.03;;;3.00;99.90;;;;;;5111216;28;20214;-56
2023/04/14 04:10:12;;;;;;;7.95;2.60;;;3.00;99.90;;;;;;5111942;28;20387;-57
2023/04/14 04:12:42;;;;;;;5.93;1.55;;;3.10;99.90;;;;;;5111295;28;20043;-57
2023/04/14 04:15:11;;;;;;;6.45;1.92;;;3.10;99.90;;;;;;5093603;28;20040;-56
2023/04/14 04:17:42;;;;;;;4.22;1.45;;;3.00;99.90;;;;;;5110467;28;20054;-57
2023/04/14 04:20:14;;;;;;;2.88;1.60;;;3.00;99.90;;;;;;5110630;28;20039;-56
2023/04/14 04:22:46;;;;;;;5.93;1.80;;;3.00;99.90;;;;;;5093501;28;20047;-57
2023/04/14 04:25:18;;;;;;;4.40;1.48;;;3.00;99.90;;;;;;5092024;28;20044;-57
2023/04/14 04:27:54;;;;;;;10.52;1.70;;;2.90;99.90;;;;;;5090144;28;20047;-57
2023/04/14 04:30:24;;;;;;;2.75;1.50;;;2.90;99.90;;;;;;5074290;28;20052;-57
2023/04/14 04:32:51;;;;;;;5.28;1.90;;;2.90;99.90;;;;;;5077256;28;20453;-57
2023/04/14 04:35:20;;;;;;;5.10;1.30;;;2.90;99.90;;;;;;5093907;28;20040;-58
2023/04/14 04:37:49;;;;;;;11.20;2.20;;;2.80;99.90;;;;;;5077455;28;20044;-56
2023/04/14 04:40:17;;;;;;;10.52;3.15;;;2.80;99.90;;;;;;5076590;28;20404;-56
2023/04/14 04:42:49;;;;;;;7.70;2.22;;;2.80;99.90;;;;;;5078448;28;20043;-59
2023/04/14 04:45:49;;;;;;;7.82;2.20;;;2.80;99.90;;;;;;5077008;28;20040;-56
2023/04/14 04:48:16;;;;;;;3.75;1.85;;;2.80;99.90;;;;;;5101120;28;20047;-55
2023/04/14 04:50:45;;;;;;;9.57;2.53;;;2.80;99.90;;;;;;5110849;28;20129;-58
2023/04/14 04:53:13;;;;;;;7.30;2.50;;;2.80;99.90;;;;;;5110829;28;20400;-57
2023/04/14 04:55:41;;;;;;;10.25;2.72;;;2.80;99.90;;;;;;5111724;28;20184;-60
2023/04/14 04:58:09;;;;;;;3.53;1.73;;;2.90;99.90;;;;;;5110188;28;20039;-59
2023/04/14 05:00:40;;;;;;;7.95;2.15;;;2.90;99.90;;;;;;5111424;28;20039;-58
2023/04/14 05:03:10;;;;;;;5.53;2.60;;;2.90;99.90;;;;;;5104477;28;20046;-57
2023/04/14 05:05:38;;;;;;;11.65;2.97;;;2.90;99.90;;;;;;5083220;28;20055;-59
2023/04/14 05:08:06;;;;;;;6.95;2.65;;;3.00;99.90;;;;;;5106906;28;20071;-57
2023/04/14 05:10:35;;;;;;;8.55;2.67;;;3.10;99.90;;;;;;5108240;28;20042;-56
2023/04/14 05:13:03;;;;;;;10.23;2.53;;;3.20;99.90;;;;;;5107950;28;20047;-57
2023/04/14 05:15:31;;;;;;;12.70;2.70;;;3.20;99.90;;;;;;5106542;28;20164;-57
2023/04/14 05:18:00;;;;;;;7.35;2.55;;;3.30;99.90;;;;;;5107555;28;20518;-56
2023/04/14 05:20:31;;;;;;;15.60;3.05;;;3.30;99.90;;;;;;5108113;28;20394;-58
2023/04/14 05:23:01;;;;;;;11.48;2.55;;;3.50;99.90;;;;;;5107825;28;20055;-58
2023/04/14 05:25:29;;;;;;;11.20;3.00;;;3.50;99.90;;;;;;5108234;28;20047;-57
2023/04/14 05:27:57;;;;;;;7.20;3.03;;;3.70;99.90;;;;;;5093181;28;20050;-57
2023/04/14 05:30:25;;;;;;;6.97;2.95;;;3.60;99.90;;;;;;5110667;28;20059;-57
2023/04/14 05:32:53;;;;;;;11.77;3.33;;;3.70;99.90;;;;;;5105906;28;20031;-58
2023/04/14 05:35:23;;;;;;;5.40;2.83;;;3.70;99.90;;;;;;5107812;28;20050;-57
2023/04/14 05:37:51;;;;;;;12.23;3.10;;;3.80;99.90;;;;;;5110983;28;20044;-57
2023/04/14 05:40:21;;;;;;;7.47;3.47;;;3.90;99.90;;;;;;5110862;28;20058;-56
2023/04/14 05:42:49;;;;;;;8.70;3.60;;;3.80;99.90;;;;;;5101585;28;20052;-56
2023/04/14 05:45:16;;;;;;;12.88;3.72;;;3.90;99.90;;;;;;5090066;28;20055;-56
2023/04/14 05:47:46;;;;;;;6.30;3.30;;;4.00;99.90;;;;;;5097339;28;20051;-57
2023/04/14 05:50:15;;;;;;;9.13;3.83;;;4.00;99.90;;;;;;5089782;28;20055;-59
2023/04/14 05:52:42;;;;;;;8.48;3.33;;;4.00;99.90;;;;;;5107493;28;20051;-56
2023/04/14 05:55:10;;;;;;;7.40;3.20;;;4.10;99.90;;;;;;5107131;28;20048;-57
2023/04/14 05:57:38;;;;;;;6.05;2.85;;;4.10;99.90;;;;;;5088885;28;20427;-56
2023/04/14 06:00:08;;;;;;;16.85;3.58;;;4.20;99.90;;;;;;5090403;28;20044;-56
2023/04/14 06:02:39;;;;;;;5.03;2.55;;;4.20;99.90;;;;;;5097031;28;20028;-56
2023/04/14 06:05:08;;;;;;;11.55;2.95;;;4.20;99.90;;;;;;5110016;28;20043;-56
2023/04/14 06:07:36;;;;;;;4.60;2.30;;;4.30;99.90;;;;;;5087327;28;20051;-56
2023/04/14 06:10:04;;;;;;;8.25;2.80;;;4.30;99.90;;;;;;5090086;28;20055;-57
2023/04/14 06:12:32;;;;;;;13.00;3.53;;;;;;;;;;5089263;28;20055;-57
2023/04/14 06:14:59;;;;;;;11.32;3.05;;;4.40;99.90;;;;;;5106987;28;20047;-57
2023/04/14 06:17:27;;;;;;;10.73;3.65;;;4.40;99.90;;;;;;5106554;28;20479;-57
2023/04/14 06:19:56;;;;;;;8.30;2.85;;;4.50;99.90;;;;;;5105141;28;20051;-57
2023/04/14 06:22:28;;;;;;;13.55;2.95;;;4.50;99.90;;;;;;5105864;28;20059;-56
2023/04/14 06:24:58;;;;;;;7.15;2.42;;;4.50;99.90;;;;;;5106878;28;20499;-57
2023/04/14 06:27:25;;;;;;;8.02;2.60;;;4.60;99.90;;;;;;5109214;28;20051;-57
2023/04/14 06:29:53;;;;;;;5.38;2.38;;;4.60;99.90;;;;;;5109868;28;20547;-57
2023/04/14 06:32:21;;;;;;;10.50;2.30;;;4.60;99.90;;;;;;5110097;28;20043;-56
2023/04/14 06:34:49;;;;;;;11.65;2.40;;;4.60;99.90;;;;;;5075941;28;20051;-57
2023/04/14 06:37:19;;;;;;;7.97;3.03;;;4.60;99.90;;;;;;5091863;28;20044;-58
2023/04/14 06:39:50;;;;;;;11.65;2.58;;;4.60;99.90;;;;;;5110168;28;20039;-58
2023/04/14 06:42:17;;;;;;;6.43;2.35;;;4.60;99.90;;;;;;5091111;28;20051;-56
2023/04/14 06:44:49;;;;;;;10.63;3.70;;;4.60;99.90;;;;;;5109334;28;20483;-56
2023/04/14 06:47:18;;;;;;;10.23;2.70;;;4.50;99.90;;;;;;5109631;28;20054;-57
2023/04/14 06:49:46;;;;;;;4.32;2.60;;;4.50;99.90;;;;;;5108963;28;20048;-56
2023/04/14 06:52:13;;;;;;;5.30;2.78;;;4.50;99.90;;;;;;5106467;28;20058;-57
2023/04/14 06:54:41;;;;;;;6.53;2.33;;;4.50;99.90;;;;;;5086519;28;20056;-57
2023/04/14 06:57:09;;;;;;;9.38;2.60;;;4.60;99.90;;;;;;5097232;28;20533;-56
2023/04/14 06:59:37;;;;;;;7.22;2.15;;;4.60;99.90;;;;;;5109298;28;20502;-57
2023/04/14 07:02:08;;;;;;;14.02;4.20;;;4.60;99.90;;;;;;5089300;28;20278;-57
2023/04/14 07:04:38;;;;;;;3.60;1.48;;;4.60;99.90;;;;;;5075645;28;20055;-56
2023/04/14 07:07:06;;;;;;;9.13;2.58;;;4.60;99.90;;;;;;5093056;28;20032;-57
2023/04/14 07:09:34;;;;;;;6.35;2.50;;;4.60;99.90;;;;;;5089460;28;20063;-58
2023/04/14 07:12:04;;;;;;;;;;;4.70;99.90;;;;;;5093402;28;20055;-56
2023/04/14 07:14:32;;;;;;;3.28;1.83;;;4.70;99.90;;;;;;5108985;28;19919;-57
2023/04/14 07:17:03;;;;;;;7.28;1.92;;;4.70;99.90;;;;;;5108740;28;20043;-57
2023/04/14 07:19:31;;;;;;;6.28;2.40;;;4.80;99.90;;;;;;5108722;28;20040;-59
2023/04/14 07:21:59;;;;;;;14.07;2.60;;;4.80;99.90;;;;;;5108779;28;20044;-58
2023/04/14 07:24:26;;;;;;;5.78;2.88;;;4.80;99.90;;;;;;5109275;28;20055;-60
2023/04/14 07:26:54;;;;;;;8.88;3.03;;;4.80;99.90;;;;;;5109208;28;20050;-57
2023/04/14 07:29:22;;;;;;;7.35;2.50;;;4.80;99.90;;;;;;5107461;28;20555;-57
2023/04/14 07:31:49;;;;;;;10.30;2.78;;;4.90;99.90;;;;;;5108951;28;20040;-57
2023/04/14 07:34:18;;;;;;;15.68;3.22;;;4.90;99.90;;;;;;5108044;28;20067;-59
2023/04/14 07:36:47;;;;;;;8.75;2.38;;;4.90;99.90;;;;;;5108796;28;20043;-57
2023/04/14 07:39:15;;;;;;;3.63;2.03;;;5.00;99.90;;;;;;5090340;28;20070;-57
2023/04/14 07:41:43;;;;;;;6.55;2.35;;;5.00;99.90;;;;;;5109117;28;20506;-56
2023/04/14 07:44:11;;;;;;;6.07;2.03;;;5.10;99.90;;;;;;5107469;28;20395;-58
2023/04/14 07:46:38;;;;;;;8.90;2.78;;;5.10;99.90;;;;;;5108505;28;20050;-56
2023/04/14 07:49:07;;;;;;;9.20;2.92;;;5.20;99.90;;;;;;5086423;28;20051;-57
2023/04/14 07:51:34;;;;;;;7.45;2.80;;;5.20;99.90;;;;;;5090817;28;20396;-59
2023/04/14 07:54:04;;;;;;;8.07;2.75;;;5.20;99.90;;;;;;5087560;28;20052;-56
2023/04/14 07:56:32;;;;;;;5.70;2.97;;;5.30;99.90;;;;;;5089790;28;20055;-58
2023/04/14 07:59:00;;;;;;;7.80;2.83;;;5.30;99.90;;;;;;5108063;28;20067;-59
2023/04/14 08:01:28;;;;;;;7.55;2.75;;;5.40;99.90;;;;;;5108493;28;20036;-56
2023/04/14 08:03:59;;;;;;;6.38;3.03;;;5.40;99.90;;;;;;5107704;28;20051;-57
2023/04/14 08:06:27;;;;;;;9.30;3.60;;;5.50;99.90;;;;;;5115286;28;20051;-57
2023/04/14 08:08:54;;;;;;;8.43;3.10;;;5.60;99.90;;;;;;5092620;28;20491;-58
2023/04/14 08:11:22;;;;;;;9.27;3.17;;;5.70;99.90;;;;;;5094623;28;20051;-58
2023/04/14 08:13:51;;;;;;;9.10;2.65;;;5.80;99.90;;;;;;5110291;28;20050;-58
2023/04/14 08:16:19;;;;;;;7.32;2.60;;;5.80;99.90;;;;;;5115305;28;20043;-59
2023/04/14 08:18:47;;;;;;;8.68;2.70;;;6.00;99.90;;;;;;5113727;28;20048;-56
2023/04/14 08:21:15;;;;;;;15.63;3.25;;;6.00;99.90;;;;;;5114846;28;20062;-57
2023/04/14 08:23:43;;;;;;;3.45;2.30;;;6.10;99.90;;;;;;5114886;28;20040;-57
2023/04/14 08:26:11;;;;;;;4.55;2.28;;;6.20;99.90;;;;;;5111906;28;20526;-57
2023/04/14 08:28:38;;;;;;;4.93;2.08;;;6.30;99.90;;;;;;5107613;28;20059;-56
2023/04/14 08:31:06;;;;;;;8.65;2.20;;;6.40;99.90;;;;;;5114953;28;20048;-56
2023/04/14 08:33:33;;;;;;;7.68;2.20;;;7.70;99.90;;;;;;5114743;28;20044;-55
2023/04/14 08:36:01;;;;;;;6.45;2.20;;;6.60;99.90;;;;;;5113020;28;20048;-55
2023/04/14 08:38:29;;;;;;;4.10;2.28;;;6.80;99.90;;;;;;5114195;28;20051;-56
2023/04/14 08:40:59;;;;;;;4.97;2.20;;;6.80;99.90;;;;;;5114871;28;20055;-56
2023/04/14 08:43:28;;;;;;;3.55;1.77;;;7.00;99.90;;;;;;5109242;28;20056;-56
2023/04/14 08:45:56;;;;;;;2.80;1.60;;;7.10;99.90;;;;;;5094250;28;20450;-58
2023/04/14 08:48:29;;;;;;;5.97;1.77;;;7.20;99.90;;;;;;5105320;28;20044;-55
2023/04/14 08:51:30;;;;;;;6.32;1.95;;;7.50;99.90;;;;;;5080938;28;20055;-58
2023/04/14 08:54:00;;;;;;;5.85;2.30;;;7.70;99.90;;;;;;5107636;28;20048;-55
2023/04/14 08:56:32;;;;;;;3.05;1.45;;;7.80;99.90;;;;;;5114984;28;20055;-56
2023/04/14 08:59:00;;;;;;;7.45;2.38;;;7.90;99.90;;;;;;5111614;28;20044;-56
2023/04/14 09:01:28;;;;;;;5.75;1.50;;;8.00;99.90;;;;;;5092046;28;20050;-56
2023/04/14 09:03:56;;;;;;;7.55;2.08;;;8.00;99.90;;;;;;5106894;28;20501;-55
2023/04/14 09:06:26;;;;;;;3.92;1.10;;;8.00;99.90;;;;;;5112306;28;20406;-58
2023/04/14 09:08:54;;;;;;;7.80;1.77;;;8.00;99.90;;;;;;5113389;28;20047;-56
2023/04/14 09:11:22;;;;;;;4.25;1.20;;;8.00;99.90;;;;;;5114623;28;20552;-55
2023/04/14 09:13:52;;;;;;;4.90;1.50;;;8.00;99.90;;;;;;5104131;28;20082;-55
2023/04/14 09:16:20;;;;;;;4.95;1.52;;;8.10;99.90;;;;;;5113119;28;20039;-55
2023/04/14 09:18:48;;;;;;;5.72;1.80;;;8.10;99.90;;;;;;5111225;28;20360;-55
2023/04/14 09:21:17;;;;;;;3.80;1.40;;;8.20;99.90;;;;;;5109694;28;20050;-55
2023/04/14 09:24:06;;;;;;;3.78;1.50;;;8.20;99.90;;;;;;5110753;28;20414;-55
2023/04/14 09:26:33;;;;;;;6.40;2.20;;;8.20;99.90;;;;;;5099101;28;20047;-56
2023/04/14 09:29:01;;;;;;;8.00;2.25;;;8.20;99.90;;;;;;5106615;28;20050;-54
2023/04/14 09:31:29;;;;;;;4.38;1.58;;;8.20;99.90;;;;;;5111283;28;20376;-55
2023/04/14 09:33:57;;;;;;;6.10;2.17;;;8.20;99.90;;;;;;5092833;28;20059;-55
2023/04/14 09:36:27;;;;;;;7.03;1.80;;;8.10;99.90;;;;;;5090062;28;20502;-54
2023/04/14 09:38:56;;;;;;;4.75;1.48;;;8.10;99.90;;;;;;5111060;28;20051;-55
2023/04/14 09:41:26;;;;;;;7.20;1.90;;;8.10;99.90;;;;;;5111058;28;20051;-57
2023/04/14 09:43:54;;;;;;;5.32;1.75;;;8.00;99.90;;;;;;5078004;28;20052;-55
2023/04/14 09:46:22;;;;;;;4.55;1.70;;;8.00;99.90;;;;;;5090455;28;20040;-56
2023/04/14 09:48:51;;;;;;;7.43;1.50;;;7.90;99.90;;;;;;5059395;28;20411;-56
2023/04/14 09:51:22;;;;;;;3.55;1.67;;;7.90;99.90;;;;;;5105956;28;20058;-56
2023/04/14 09:53:54;;;;;;;4.93;1.63;;;7.90;99.90;;;;;;5109530;28;20652;-56
2023/04/14 09:56:26;;;;;;;5.25;1.90;;;7.80;99.90;;;;;;5111092;28;20044;-55
2023/04/14 09:59:00;;;;;;;6.93;1.75;;;7.90;99.90;;;;;;5110592;28;20058;-57
2023/04/14 10:01:32;;;;;;;6.00;1.95;;;7.90;99.90;;;;;;5107891;28;20490;-57
2023/04/14 10:04:01;;;;;;;8.48;2.00;;;7.90;99.90;;;;;;5096392;28;20035;-55
2023/04/14 10:06:32;;;;;;;8.20;2.05;;;7.90;99.90;;;;;;5110180;28;20550;-56
2023/04/14 10:09:00;;;;;;;7.65;1.90;;;8.00;99.90;;;;;;5110576;28;20035;-57
2023/04/14 10:11:31;;;;;;;4.72;2.45;;;8.10;99.90;;;;;;5109340;28;20055;-58
2023/04/14 10:14:06;;;;;;;4.60;2.00;;;8.10;99.90;;;;;;5096408;28;20048;-58
2023/04/14 10:16:33;;;;;;;7.75;2.45;;;8.20;99.90;;;;;;5071952;28;20052;-59
2023/04/14 10:19:01;;;;;;;7.40;1.90;;;8.30;99.90;;;;;;5105822;28;20050;-56
2023/04/14 10:21:31;;;;;;;6.88;2.00;;;8.30;99.90;;;;;;5077165;28;20615;-58
2023/04/14 10:24:00;;;;;;;8.60;2.42;;;8.30;99.90;;;;;;5086881;28;20054;-56
2023/04/14 10:26:28;;;;;;;4.30;1.52;;;8.30;99.90;;;;;;5075091;28;20407;-56
2023/04/14 10:28:56;;;;;;;4.13;1.73;;;8.30;99.90;;;;;;5109336;28;20536;-56
2023/04/14 10:31:29;;;;;;;5.97;1.95;;;8.40;99.90;;;;;;5091490;28;20051;-57
2023/04/14 10:33:57;;;;;;;4.53;2.72;;;8.40;99.90;;;;;;5108250;28;20051;-56
2023/04/14 10:36:27;;;;;;;4.07;1.88;;;8.50;99.90;;;;;;5109038;28;20087;-56
2023/04/14 10:39:00;;;;;;;2.65;1.33;;;8.50;99.90;;;;;;5109425;28;20047;-56
2023/04/14 10:41:47;;;;;;;1.80;1.08;;;8.50;99.90;;;;;;5109802;28;20040;-56
2023/04/14 10:44:24;;;;;;;8.85;1.40;;;8.50;99.90;;;;;;5108868;28;20523;-56
2023/04/14 10:46:55;;;;;;;2.53;1.15;;;8.50;99.90;;;;;;5109657;28;20063;-55
2023/04/14 10:49:29;;;;;;;4.05;1.00;;;8.60;99.90;;;;;;5109260;28;20047;-56
2023/04/14 10:52:12;;;;;;;3.70;1.17;;;8.60;99.90;;;;;;5109308;28;20051;-57
2023/04/14 10:54:52;;;;;;;6.10;1.50;;;8.60;99.90;;;;;;5071521;28;20052;-56
2023/04/14 10:57:25;;;;;;;3.50;1.02;;;8.60;99.90;;;;;;5089218;28;20040;-55
2023/04/14 10:59:54;;;;;;;4.10;1.20;;;8.60;99.90;;;;;;5071232;28;20048;-55
2023/04/14 11:02:28;;;;;;;4.90;1.63;;;8.60;99.90;;;;;;5090032;28;20052;-56
2023/04/14 11:05:03;;;;;;;5.80;1.48;;;8.50;99.90;;;;;;5109293;28;20062;-58
2023/04/14 11:07:45;;;;;;;10.48;1.55;;;8.60;99.90;;;;;;5073741;28;20062;-55
2023/04/14 11:10:16;;;;;;;9.93;1.77;;;8.70;99.90;;;;;;5109449;28;20039;-57
2023/04/14 11:13:02;;;;;;;4.85;1.20;;;8.70;99.90;;;;;;5107471;28;20062;-56
2023/04/14 11:15:46;;;;;;;6.43;1.13;;;8.60;99.90;;;;;;5091373;28;20055;-56
2023/04/14 11:18:19;;;;;;;4.38;1.10;;;8.70;99.90;;;;;;5096674;28;20040;-56
2023/04/14 11:20:50;;;;;;;6.60;1.67;;;8.80;99.90;;;;;;5109007;28;20074;-56
2023/04/14 11:23:26;;;;;;;3.40;1.27;;;8.70;99.90;;;;;;5108948;28;20047;-56
2023/04/14 11:25:56;;;;;;;7.63;1.83;;;8.70;99.90;;;;;;5097187;28;20380;-56
2023/04/14 11:28:47;;;;;;;7.80;1.52;;;8.60;99.90;;;;;;5098661;28;20043;-56
2023/04/14 11:31:16;;;;;;;4.55;1.60;;;8.60;99.90;;;;;;5106407;28;20051;-56
2023/04/14 11:33:44;;;;;;;5.97;1.98;;;8.60;99.90;;;;;;5107287;28;20039;-54
2023/04/14 11:36:12;;;;;;;5.65;1.80;;;8.60;99.90;;;;;;5108239;28;20043;-56
2023/04/14 11:38:41;;;;;;;3.30;1.50;;;8.70;99.90;;;;;;5088853;28;20505;-56
2023/04/14 11:41:09;;;;;;;9.33;2.17;;;8.70;99.90;;;;;;5108271;28;20050;-55
2023/04/14 11:43:37;;;;;;;5.50;2.03;;;8.80;99.90;;;;;;5107819;28;20052;-57
2023/04/14 11:46:07;;;;;;;6.82;1.90;;;8.80;99.90;;;;;;5108560;28;20522;-56
2023/04/14 11:48:36;;;;;;;7.72;1.83;;;8.90;99.90;;;;;;5078638;28;20052;-57
2023/04/14 11:51:03;;;;;;;5.63;1.60;;;9.00;99.90;;;;;;5102871;28;20486;-55
2023/04/14 11:53:32;;;;;;;4.50;2.05;;;9.00;99.90;;;;;;5108223;28;20043;-54
2023/04/14 11:56:00;;;;;;;7.10;1.90;;;9.10;99.90;;;;;;5090528;28;20046;-57
2023/04/14 11:58:28;;;;;;;4.32;1.20;;;9.20;99.90;;;;;;5108258;28;20655;-54
2023/04/14 12:00:58;;;;;;;3.10;1.10;;;9.30;99.90;;;;;;5105889;28;20055;-55
2023/04/14 12:03:27;;;;;;;7.13;1.20;;;9.30;99.90;;;;;;5083636;28;20052;-55
2023/04/14 12:05:58;;;;;;;3.20;0.88;;;9.30;99.90;;;;;;5090392;28;20415;-55
2023/04/14 12:08:31;;;;;;;5.95;1.20;;;9.40;99.90;;;;;;5107286;28;20052;-55
2023/04/14 12:11:14;;;;;;;4.72;1.10;;;9.50;99.90;;;;;;5108485;28;20063;-56
2023/04/14 12:13:43;;;;;;;3.28;1.10;;;9.50;99.90;;;;;;5105101;28;20048;-56
2023/04/14 12:16:13;;;;;;;4.18;1.10;;;9.50;99.90;;;;;;5087897;28;20048;-56
2023/04/14 12:18:42;;;;;;;5.28;1.02;;;9.50;99.90;;;;;;5099924;28;20039;-56
2023/04/14 12:21:14;;;;;;;3.38;1.13;;;9.50;99.90;;;;;;5106230;28;20055;-57
2023/04/14 12:23:47;;;;;;;8.90;1.20;;;9.60;99.90;;;;;;5108169;28;20391;-56
2023/04/14 12:26:15;;;;;;;5.63;1.30;;;9.50;99.90;;;;;;5108049;28;20074;-58
2023/04/14 12:28:43;;;;;;;3.00;1.10;;;9.50;99.90;;;;;;5089402;28;20054;-56
2023/04/14 12:31:11;;;;;;;9.00;1.58;;;9.50;99.90;;;;;;5108091;28;20044;-56
2023/04/14 12:33:39;;;;;;;10.60;1.92;;;9.40;99.90;;;;;;5108051;28;20036;-55
2023/04/14 12:36:11;;;;;;;4.53;1.10;;;9.40;99.90;;;;;;5097324;28;20066;-56
2023/04/14 12:38:38;;;;;;;6.10;1.42;;;9.40;99.90;;;;;;5098711;28;20051;-56
2023/04/14 12:41:06;;;;;;;4.40;1.30;;;9.40;99.90;;;;;;5087850;28;20040;-55
2023/04/14 12:43:39;;;;;;;4.68;1.30;;;9.50;99.90;;;;;;5099647;28;20066;-58
2023/04/14 12:46:07;;;;;;;3.00;1.15;;;9.50;99.90;;;;;;5106202;28;20043;-57
2023/04/14 12:48:43;;;;;;;2.05;0.95;;;9.60;99.90;;;;;;5098994;28;20043;-57
2023/04/14 12:51:21;;;;;;;4.93;1.77;;;9.60;99.90;;;;;;5109216;28;20047;-56
2023/04/14 12:54:04;;;;;;;4.95;1.10;;;9.70;99.90;;;;;;5111892;28;20039;-57
2023/04/14 12:56:41;;;;;;;6.97;1.30;;;9.70;99.90;;;;;;5110499;28;20044;-56
2023/04/14 12:59:08;;;;;;;3.72;1.00;;;9.70;99.90;;;;;;5111773;28;20051;-55
2023/04/14 13:01:36;;;;;;;5.18;1.05;;;9.70;99.90;;;;;;5109786;28;20051;-55
2023/04/14 13:04:05;;;;;;;3.58;1.10;;;9.70;99.90;;;;;;5108083;28;20398;-55
2023/04/14 13:06:33;;;;;;;3.97;1.40;;;9.70;99.90;;;;;;5109629;28;20054;-56
2023/04/14 13:09:01;;;;;;;3.30;0.88;;;9.60;99.90;;;;;;5111536;28;20283;-57
2023/04/14 13:11:30;;;;;;;3.70;1.20;;;9.60;99.90;;;;;;5110678;28;20516;-55
2023/04/14 13:13:58;;;;;;;6.13;1.33;;;9.50;99.90;;;;;;5105222;28;20039;-56
2023/04/14 13:16:26;;;;;;;5.88;1.50;;;9.50;99.90;;;;;;5091189;28;20059;-56